Time;durP1;ratioP1;P1;durP2;ratioP2;P2;SDS_P1;SDS_P2;PMS_P1;PMS_P2;Temp;Humidity;BMP_temperature;BMP_pressure;BME280_temperature;BME280_humidity;BME280_pressure;Samples;Min_cycle;Max_cycle;Signal;HPM_P1;HPM_P2
2022/04/28 00:00:37;;;;;;;11.05;7.38;;;;;;;3.97;89.89;98191.09;5063997;28;20040;-63
2022/04/28 00:03:04;;;;;;;11.40;7.43;;;;;;;3.82;90.72;98196.47;5065173;28;20075;-61
2022/04/28 00:05:31;;;;;;;12.02;7.55;;;;;;;3.81;90.85;98202.88;5065868;28;20071;-64
2022/04/28 00:07:58;;;;;;;10.52;7.13;;;;;;;3.71;91.07;98200.47;5065159;28;20083;-62
2022/04/28 00:10:24;;;;;;;10.02;6.80;;;;;;;3.84;90.64;98200.63;5065586;28;20040;-63
2022/04/28 00:12:51;;;;;;;11.30;7.20;;;;;;;3.74;91.17;98192.06;5065366;28;20122;-64
2022/04/28 00:15:18;;;;;;;11.65;7.80;;;;;;;3.55;90.91;98201.50;5064054;28;20047;-64
2022/04/28 00:17:45;;;;;;;11.70;7.00;;;;;;;3.62;91.35;98199.75;5064864;28;20658;-64
2022/04/28 00:20:13;;;;;;;12.23;7.72;;;;;;;3.63;91.46;98201.41;5065782;28;20093;-63
2022/04/28 00:22:39;;;;;;;10.60;7.05;;;;;;;3.66;91.96;98194.84;5064666;28;20047;-64
2022/04/28 00:25:06;;;;;;;11.90;6.60;;;;;;;3.73;91.62;98204.63;5079915;28;20051;-64
2022/04/28 00:27:33;;;;;;;12.38;7.57;;;;;;;3.57;91.14;98202.19;5072702;28;20040;-63
2022/04/28 00:30:00;;;;;;;9.38;6.85;;;;;;;3.35;91.18;98197.56;5065061;28;20098;-63
2022/04/28 00:32:26;;;;;;;11.63;7.63;;;;;;;3.53;92.15;98203.56;5065033;28;20044;-62
2022/04/28 00:34:54;;;;;;;12.68;7.63;;;;;;;3.60;91.53;98199.09;5065585;28;20674;-63
2022/04/28 00:37:21;;;;;;;10.30;6.85;;;;;;;3.65;90.80;98199.41;5061979;28;20052;-63
2022/04/28 00:39:49;;;;;;;11.52;7.45;;;;;;;3.76;90.55;98195.41;5064824;28;20607;-63
2022/04/28 00:42:17;;;;;;;10.25;6.70;;;;;;;3.66;91.02;98197.53;5063147;28;20040;-63
2022/04/28 00:44:45;;;;;;;12.77;7.05;;;;;;;3.64;91.05;98200.41;5064902;28;20036;-62
2022/04/28 00:47:13;;;;;;;10.90;7.40;;;;;;;3.71;91.01;98193.28;5063027;28;20106;-63
2022/04/28 00:52:27;;;;;;;11.25;7.20;;;;;;;3.51;90.65;98195.72;5064023;28;20521;-63
2022/04/28 00:54:54;;;;;;;11.05;7.63;;;;;;;3.43;91.41;98201.16;5064956;28;20056;-63
2022/04/28 00:57:24;;;;;;;10.88;7.65;;;;;;;3.33;91.40;98202.28;5043667;28;20115;-62
2022/04/28 00:59:51;;;;;;;10.80;7.32;;;;;;;3.32;91.26;98192.56;5043303;28;20067;-63
2022/04/28 01:02:18;;;;;;;12.55;7.18;;;;;;;3.24;91.70;98196.16;5043248;28;20566;-62
2022/04/28 01:04:47;;;;;;;11.32;7.10;;;;;;;3.15;92.28;98191.91;5043130;28;20095;-62
2022/04/28 01:07:16;;;;;;;12.77;7.32;;;;;;;3.19;92.03;98192.38;5042912;28;20056;-63
2022/04/28 01:09:43;;;;;;;12.75;7.07;;;;;;;3.27;91.39;98192.28;5071037;28;20037;-63
2022/04/28 01:12:15;;;;;;;10.65;7.05;;;;;;;3.23;91.14;98196.34;5040956;28;20753;-64
2022/04/28 01:14:47;;;;;;;13.52;7.20;;;;;;;3.18;91.47;98191.56;5043193;28;20049;-63
2022/04/28 01:17:13;;;;;;;11.43;7.45;;;;;;;3.12;92.10;98203.00;5042330;28;20415;-63
2022/04/28 01:19:45;;;;;;;11.63;7.55;;;;;;;3.18;92.17;98194.25;5042546;28;20049;-63
2022/04/28 01:22:11;;;;;;;10.40;7.35;;;;;;;2.96;91.25;98193.28;5043404;28;20417;-63
2022/04/28 01:24:38;;;;;;;11.10;7.82;;;;;;;2.84;92.40;98199.06;5052987;28;20048;-63
2022/04/28 01:27:07;;;;;;;11.43;7.50;;;;;;;2.75;92.65;98194.81;5056353;28;20048;-62
2022/04/28 01:29:34;;;;;;;14.02;8.15;;;;;;;2.71;92.77;98199.69;5043536;28;20051;-63
2022/04/28 01:32:02;;;;;;;12.30;7.75;;;;;;;2.73;93.42;98195.00;5043675;28;20732;-63
2022/04/28 01:34:32;;;;;;;10.88;7.47;;;;;;;2.47;92.91;98200.75;5043201;28;20512;-63
2022/04/28 01:36:59;;;;;;;13.07;8.63;;;;;;;2.32;93.80;98206.03;5043977;28;20041;-64
2022/04/28 01:39:26;;;;;;;10.00;6.60;;;;;;;2.42;94.46;98203.94;5043292;28;20041;-62
2022/04/28 01:41:54;;;;;;;13.65;7.88;;;;;;;2.50;93.72;98210.25;5042184;28;20036;-63
2022/04/28 01:44:21;;;;;;;13.77;8.10;;;;;;;2.61;93.76;98199.09;5044686;28;20041;-63
2022/04/28 01:46:47;;;;;;;13.02;8.00;;;;;;;2.55;93.77;98200.66;5043555;28;20116;-63
2022/04/28 01:49:48;;;;;;;16.35;7.50;;;;;;;2.57;93.69;98201.31;5042859;28;20052;-64
2022/04/28 01:55:39;;;;;;;12.75;7.80;;;;;;;2.77;93.71;98191.97;5043499;28;20053;-64
2022/04/28 01:58:31;;;;;;;;;;;;;;;2.74;92.34;98203.84;5036057;28;20187;-64
2022/04/28 02:01:25;;;;;;;12.90;7.68;;;;;;;2.71;92.29;98207.72;5041834;28;19928;-63
2022/04/28 02:03:52;;;;;;;13.48;8.18;;;;;;;2.62;92.55;98202.63;5045060;28;20037;-62
2022/04/28 02:06:20;;;;;;;12.45;7.60;;;;;;;2.51;92.63;98203.88;5041168;28;20654;-62
2022/04/28 02:08:46;;;;;;;11.43;8.35;;;;;;;2.49;92.88;98200.53;5040242;28;20045;-63
2022/04/28 02:11:15;;;;;;;13.63;8.15;;;;;;;2.50;92.90;98196.88;5044844;28;20075;-64
2022/04/28 02:14:02;;;;;;;13.60;7.90;;;;;;;2.51;93.10;98203.88;5038039;28;20056;-63
2022/04/28 02:16:54;;;;;;;13.55;7.82;;;;;;;2.38;93.11;98205.31;5042776;28;20053;-62
2022/04/28 02:19:27;;;;;;;12.93;7.65;;;;;;;2.27;93.43;98200.38;5045535;28;20048;-64
2022/04/28 02:21:54;;;;;;;15.80;8.15;;;;;;;2.27;93.98;98195.88;5046883;28;20036;-63
2022/04/28 02:24:21;;;;;;;12.57;7.90;;;;;;;2.30;93.28;98197.34;5040925;28;20417;-62
2022/04/28 02:26:48;;;;;;;15.02;9.52;;;;;;;2.32;93.79;98201.50;5046281;28;20571;-62
2022/04/28 02:29:15;;;;;;;11.82;7.93;;;;;;;2.32;92.95;98206.03;5047544;28;20397;-63
2022/04/28 02:31:44;;;;;;;12.07;8.13;;;;;;;2.16;92.75;98207.78;5044942;28;20068;-63
2022/04/28 02:34:12;;;;;;;14.18;7.05;;;;;;;2.03;93.82;98208.34;5046096;28;20037;-64
2022/04/28 02:36:42;;;;;;;13.43;8.23;;;;;;;2.08;93.94;98211.34;5045467;28;20095;-63
2022/04/28 02:39:09;;;;;;;13.90;8.05;;;;;;;2.22;93.28;98214.28;5045734;28;20048;-61
2022/04/28 02:41:37;;;;;;;12.15;8.48;;;;;;;2.25;93.61;98218.44;5042376;28;20137;-62
2022/04/28 02:44:04;;;;;;;12.00;7.28;;;;;;;2.21;93.25;98220.59;5047017;28;20045;-63
2022/04/28 02:46:31;;;;;;;12.10;7.88;;;;;;;2.30;92.33;98216.91;5044239;28;20251;-63
2022/04/28 02:49:06;;;;;;;13.43;8.23;;;;;;;2.37;92.25;98214.34;5045237;28;20040;-63
2022/04/28 02:51:35;;;;;;;11.88;7.45;;;;;;;2.43;92.14;98207.47;5045051;28;20044;-63
2022/04/28 02:54:03;;;;;;;11.27;7.18;;;;;;;2.29;92.72;98217.88;5046326;28;20048;-63
2022/04/28 02:56:31;;;;;;;11.00;7.28;;;;;;;2.24;92.75;98222.13;5045354;28;20045;-64
2022/04/28 02:58:58;;;;;;;13.73;7.43;;;;;;;2.12;92.73;98222.50;5045674;28;20450;-63
2022/04/28 03:01:25;;;;;;;12.15;6.93;;;;;;;2.21;92.86;98212.59;5045724;28;20048;-63
2022/04/28 03:03:52;;;;;;;12.50;7.80;;;;;;;2.21;93.11;98220.59;5047521;28;20408;-62
2022/04/28 03:11:53;;;;;;;11.68;7.10;;;;;;;2.31;92.61;98228.41;5045365;28;20476;-63
2022/04/28 03:14:20;;;;;;;13.82;7.85;;;;;;;2.30;92.02;98232.94;5046349;28;20049;-63
2022/04/28 03:16:46;;;;;;;11.52;7.05;;;;;;;2.30;92.45;98224.06;5048617;28;20140;-63
2022/04/28 03:19:14;;;;;;;12.10;7.00;;;;;;;2.32;91.85;98222.06;5051308;28;20202;-63
2022/04/28 03:21:42;;;;;;;9.77;6.63;;;;;;;2.30;91.70;98226.75;5046393;28;20090;-63
2022/04/28 03:24:10;;;;;;;10.88;6.70;;;;;;;2.34;92.11;98225.38;5051275;28;20041;-63
2022/04/28 03:26:39;;;;;;;12.15;7.57;;;;;;;2.28;91.81;98232.25;5047415;28;20051;-64
2022/04/28 03:29:10;;;;;;;11.15;7.32;;;;;;;2.27;93.09;98230.59;5043989;28;20048;-64
2022/04/28 03:31:37;;;;;;;14.00;7.85;;;;;;;2.19;92.78;98226.16;5045439;28;20037;-63
2022/04/28 03:34:36;;;;;;;13.95;8.02;;;;;;;2.14;92.41;98225.00;5045117;28;20533;-63
2022/04/28 03:37:04;;;;;;;12.23;7.80;;;;;;;2.01;93.24;98234.44;5046224;28;20040;-64
2022/04/28 03:39:37;;;;;;;13.20;8.10;;;;;;;2.01;93.22;98230.91;5049637;28;20071;-63
2022/04/28 03:42:07;;;;;;;10.98;7.30;;;;;;;2.08;93.03;98240.75;5062724;28;20041;-63
2022/04/28 03:44:34;;;;;;;10.60;6.95;;;;;;;2.05;92.43;98232.22;5053431;28;20053;-63
2022/04/28 03:47:03;;;;;;;11.95;7.25;;;;;;;2.02;92.40;98236.09;5044786;28;20102;-64
2022/04/28 03:49:30;;;;;;;10.93;7.13;;;;;;;1.86;92.81;98239.69;5077652;28;20107;-62
2022/04/28 03:51:57;;;;;;;14.15;8.23;;;;;;;1.78;93.16;98245.91;5044225;28;20044;-63
2022/04/28 03:54:24;;;;;;;12.50;8.07;;;;;;;1.73;93.83;98244.75;5046561;28;20284;-63
2022/04/28 03:56:50;;;;;;;12.50;7.70;;;;;;;1.73;93.45;98240.22;5045681;28;20048;-63
2022/04/28 03:59:17;;;;;;;12.35;8.00;;;;;;;1.68;94.14;98235.44;5043892;28;20132;-63
2022/04/28 04:01:56;;;;;;;11.55;8.05;;;;;;;1.76;93.92;98239.03;5036213;28;20040;-63
2022/04/28 04:04:23;;;;;;;12.15;7.75;;;;;;;1.72;93.69;98243.06;5054698;28;20040;-63
2022/04/28 04:07:00;;;;;;;16.02;8.88;;;;;;;1.84;93.43;98246.22;5037449;28;20044;-63
2022/04/28 04:09:47;;;;;;;13.68;8.07;;;;;;;1.87;93.29;98249.34;5047180;28;20052;-63
2022/04/28 04:12:39;;;;;;;13.68;9.00;;;;;;;1.79;93.74;98250.22;5042389;28;20103;-63
2022/04/28 04:15:14;;;;;;;12.98;8.75;;;;;;;1.83;93.29;98245.38;5041868;28;20053;-64
2022/04/28 04:18:02;;;;;;;13.82;8.43;;;;;;;1.90;93.42;98246.34;5040944;28;20591;-63
2022/04/28 04:20:47;;;;;;;13.05;8.57;;;;;;;1.88;92.47;98252.88;5040217;28;20813;-62
2022/04/28 04:23:13;;;;;;;13.32;8.70;;;;;;;1.80;93.02;98245.72;5042961;28;20051;-64
2022/04/28 04:25:40;;;;;;;12.57;8.10;;;;;;;1.79;93.20;98252.91;5045948;28;20040;-64
2022/04/28 04:28:13;;;;;;;14.75;8.63;;;;;;;1.77;92.90;98260.25;5037049;28;20049;-63
2022/04/28 04:33:53;;;;;;;13.18;7.88;;;;;;;1.76;93.23;98261.25;5070881;28;20051;-62
2022/04/28 04:36:20;;;;;;;17.58;9.32;;;;;;;1.85;93.19;98266.56;5041178;28;20053;-63
2022/04/28 04:38:47;;;;;;;19.50;9.68;;;;;;;1.81;92.90;98264.22;5040639;28;20079;-64
2022/04/28 04:41:14;;;;;;;15.82;10.48;;;;;;;1.89;93.43;98263.38;5039874;28;20045;-63
2022/04/28 04:43:41;;;;;;;15.65;9.45;;;;;;;1.96;92.87;98271.53;5042997;28;20056;-63
2022/04/28 04:46:08;;;;;;;14.10;8.68;;;;;;;2.07;92.53;98281.00;5040492;28;20056;-63
2022/04/28 04:49:06;;;;;;;12.60;8.65;;;;;;;2.11;92.33;98276.13;5026718;28;20575;-62
2022/04/28 04:51:35;;;;;;;14.07;9.65;;;;;;;2.13;92.23;98276.78;5039968;28;20466;-63
2022/04/28 04:54:14;;;;;;;16.23;10.15;;;;;;;2.11;92.84;98289.47;5041354;28;20142;-63
2022/04/28 04:56:41;;;;;;;16.17;9.60;;;;;;;2.05;92.69;98289.19;5052242;28;20576;-63
2022/04/28 04:59:08;;;;;;;14.20;9.55;;;;;;;2.19;93.57;98295.63;5040048;28;20051;-63
2022/04/28 05:01:35;;;;;;;18.83;11.13;;;;;;;2.18;92.46;98291.28;5041178;28;20045;-63
2022/04/28 05:04:25;;;;;;;14.13;9.73;;;;;;;2.20;92.69;98294.63;5031118;28;20084;-62
2022/04/28 05:07:10;;;;;;;16.25;10.23;;;;;;;2.26;92.82;98290.41;5044302;28;20055;-64
2022/04/28 05:09:38;;;;;;;15.90;10.60;;;;;;;2.26;93.79;98295.75;5040003;28;20047;-62
2022/04/28 05:12:06;;;;;;;20.73;10.27;;;;;;;2.27;93.39;98299.25;5040218;28;20045;-64
2022/04/28 05:15:13;;;;;;;17.00;9.85;;;;;;;2.30;93.80;98310.44;4999667;28;20054;-62
2022/04/28 05:17:53;;;;;;;14.93;9.05;;;;;;;2.44;93.82;98311.50;5055810;28;20107;-63
2022/04/28 05:20:53;;;;;;;25.20;10.25;;;;;;;2.57;93.68;98316.28;5036906;28;20054;-63
2022/04/28 05:23:38;;;;;;;15.73;10.88;;;;;;;2.75;93.85;98314.31;5034556;28;20087;-63
2022/04/28 05:26:23;;;;;;;16.33;10.60;;;;;;;2.87;93.34;98318.25;5040927;28;20055;-64
2022/04/28 05:29:25;;;;;;;16.35;9.95;;;;;;;2.96;93.58;98321.72;5034087;28;20053;-62
2022/04/28 05:32:09;;;;;;;18.00;11.35;;;;;;;3.18;93.43;98325.38;5045791;28;20070;-63
2022/04/28 05:34:48;;;;;;;18.77;11.63;;;;;;;3.30;92.85;98325.78;5042009;28;20056;-63
2022/04/28 05:37:21;;;;;;;17.67;11.95;;;;;;;3.34;93.26;98332.44;5044251;28;20094;-63
2022/04/28 05:39:47;;;;;;;19.85;11.38;;;;;;;3.56;93.29;98329.03;5040689;28;20041;-64
2022/04/28 05:42:14;;;;;;;16.95;11.55;;;;;;;3.71;93.60;98329.03;5043453;28;20055;-62
2022/04/28 05:47:26;;;;;;;21.95;12.52;;;;;;;4.19;93.46;98331.34;5046205;28;20048;-63
2022/04/28 05:49:54;;;;;;;22.10;13.13;;;;;;;4.33;93.23;98326.16;5045386;28;20048;-65
2022/04/28 05:52:21;;;;;;;21.48;13.27;;;;;;;4.40;94.04;98327.91;5046917;28;20044;-64
2022/04/28 05:54:50;;;;;;;19.52;12.15;;;;;;;4.62;93.64;98329.78;5046712;28;20049;-63
2022/04/28 05:57:18;;;;;;;20.15;13.10;;;;;;;4.77;93.53;98335.09;5048481;28;20049;-65
2022/04/28 05:59:45;;;;;;;19.33;13.43;;;;;;;5.00;92.78;98334.91;5044691;28;20063;-64
2022/04/28 06:02:18;;;;;;;22.65;14.13;;;;;;;5.17;91.81;98343.53;5045070;28;20049;-66
2022/04/28 06:04:45;;;;;;;23.67;13.27;;;;;;;5.28;92.26;98344.88;5044096;28;20036;-64
2022/04/28 06:07:13;;;;;;;21.83;13.27;;;;;;;5.46;91.35;98344.41;5044156;28;20515;-63
2022/04/28 06:09:46;;;;;;;22.75;14.00;;;;;;;5.59;90.99;98346.38;5046769;28;20419;-65
2022/04/28 06:12:16;;;;;;;16.25;11.70;;;;;;;5.64;91.17;98350.31;5045731;28;20602;-64
2022/04/28 06:15:03;;;;;;;17.23;11.55;;;;;;;5.76;90.85;98353.28;5045169;28;20045;-62
2022/04/28 06:18:06;;;;;;;16.42;11.50;;;;;;;5.92;89.83;98349.47;5038584;28;20057;-64
2022/04/28 06:20:33;;;;;;;17.35;11.88;;;;;;;6.29;87.79;98360.03;5041929;28;20044;-63
2022/04/28 06:23:25;;;;;;;19.33;11.68;;;;;;;6.82;84.45;98351.31;5047172;28;20053;-62
2022/04/28 06:25:53;;;;;;;16.38;10.35;;;;;;;6.98;83.34;98351.97;5042047;28;20053;-62
2022/04/28 06:28:20;;;;;;;13.30;9.80;;;;;;;7.24;81.73;98355.75;5041565;28;20037;-63
2022/04/28 06:30:52;;;;;;;14.90;8.60;;;;;;;7.51;80.58;98367.38;5043017;28;20140;-64
2022/04/28 06:33:40;;;;;;;16.08;9.00;;;;;;;7.67;79.74;98359.91;5047253;28;20071;-62
2022/04/28 06:36:21;;;;;;;13.65;9.38;;;;;;;7.79;78.81;98365.50;5046402;28;20079;-63
2022/04/28 06:38:48;;;;;;;15.20;9.70;;;;;;;7.88;79.05;98364.22;5046630;28;20044;-64
2022/04/28 06:41:15;;;;;;;14.13;8.48;;;;;;;7.99;78.75;98361.94;5045365;28;20550;-64
2022/04/28 06:43:50;;;;;;;12.43;8.60;;;;;;;8.09;78.91;98362.31;5045592;28;20045;-64
2022/04/28 06:46:37;;;;;;;14.23;8.82;;;;;;;8.28;78.68;98363.31;5046657;28;20057;-62
2022/04/28 06:49:21;;;;;;;13.20;7.72;;;;;;;8.41;76.70;98369.69;5044519;28;20052;-64
2022/04/28 06:51:57;;;;;;;11.25;7.45;;;;;;;8.49;76.60;98366.75;5047118;28;20094;-64
2022/04/28 06:54:50;;;;;;;11.25;7.53;;;;;;;8.50;76.26;98370.28;5046222;28;20045;-62
2022/04/28 06:57:20;;;;;;;13.50;7.47;;;;;;;8.74;76.13;98373.34;5045863;28;20084;-64
2022/04/28 06:59:48;;;;;;;15.20;7.95;;;;;;;8.90;74.69;98372.00;5037123;28;20259;-61
2022/04/28 07:02:19;;;;;;;13.48;7.10;;;;;;;9.05;73.49;98369.00;5035296;28;20053;-61
2022/04/28 07:04:48;;;;;;;12.48;7.95;;;;;;;9.16;71.88;98373.72;5046009;28;20114;-63
2022/04/28 07:07:19;;;;;;;9.23;6.53;;;;;;;9.34;72.94;98378.38;5045505;28;20394;-62
2022/04/28 07:09:48;;;;;;;10.20;6.72;;;;;;;9.44;70.92;98377.88;5035995;28;20438;-50
2022/04/28 07:12:41;;;;;;;9.75;6.88;;;;;;;9.60;69.95;98376.53;5040220;28;20041;-47
2022/04/28 07:15:46;;;;;;;11.55;6.38;;;;;;;9.82;68.58;98375.28;5027287;28;20437;-46
2022/04/28 07:18:31;;;;;;;10.63;6.30;;;;;;;10.01;67.86;98382.41;5043062;28;20048;-48
2022/04/28 07:21:02;;;;;;;11.05;5.93;;;;;;;10.08;66.84;98382.31;5037323;28;20045;-46
2022/04/28 07:23:36;;;;;;;10.55;6.05;;;;;;;10.21;67.03;98384.06;5039669;28;20073;-48
2022/04/28 07:26:03;;;;;;;12.75;7.03;;;;;;;10.22;65.90;98387.59;5031478;28;20613;-46
2022/04/28 07:28:31;;;;;;;8.75;5.40;;;;;;;10.39;66.51;98385.09;5035302;28;20045;-44
2022/04/28 07:31:00;;;;;;;8.43;5.70;;;;;;;10.53;65.92;98392.06;5032518;28;20163;-47
2022/04/28 07:33:45;;;;;;;10.45;6.50;;;;;;;10.66;66.33;98390.25;5044924;28;20110;-51
2022/04/28 07:36:31;;;;;;;9.30;5.80;;;;;;;10.92;66.09;98388.25;5033032;28;20060;-52
2022/04/28 07:39:16;;;;;;;11.93;6.30;;;;;;;11.02;64.66;98396.66;5043222;28;20064;-52
2022/04/28 07:42:09;;;;;;;9.57;6.18;;;;;;;11.10;63.62;98398.25;5044618;28;20045;-50
2022/04/28 07:44:40;;;;;;;14.95;6.05;;;;;;;11.16;63.67;98397.31;5045352;28;20071;-47
2022/04/28 07:47:08;;;;;;;10.25;6.07;;;;;;;11.17;63.41;98393.53;5042796;28;20049;-48
2022/04/28 07:49:40;;;;;;;10.18;5.97;;;;;;;11.34;63.93;98397.47;5042835;28;20171;-49
2022/04/28 07:52:08;;;;;;;8.95;5.57;;;;;;;11.44;61.89;98400.44;5041271;28;20095;-51
2022/04/28 07:54:36;;;;;;;9.45;5.57;;;;;;;11.47;61.79;98404.56;5040087;28;20122;-47
2022/04/28 07:57:04;;;;;;;9.07;5.90;;;;;;;11.47;62.42;98404.56;5043639;28;20064;-49
2022/04/28 07:59:32;;;;;;;9.15;6.18;;;;;;;11.47;62.55;98410.00;5042558;28;20041;-49
2022/04/28 08:02:04;;;;;;;8.35;5.97;;;;;;;11.55;62.29;98405.09;5039901;28;20045;-48
2022/04/28 08:04:32;;;;;;;13.02;5.95;;;;;;;11.78;62.56;98416.19;5045273;28;20041;-46
2022/04/28 08:06:59;;;;;;;13.43;5.50;;;;;;;11.93;61.68;98410.31;5043131;28;20555;-49
2022/04/28 08:09:28;;;;;;;10.38;5.63;;;;;;;12.10;60.70;98415.91;5066825;28;20045;-49
2022/04/28 08:11:54;;;;;;;12.60;5.88;;;;;;;12.18;61.09;98412.00;5039559;28;20037;-51
2022/04/28 08:14:23;;;;;;;9.55;6.47;;;;;;;11.99;60.54;98419.41;5041339;28;20572;-63
2022/04/28 08:16:51;;;;;;;9.32;5.38;;;;;;;11.95;60.91;98421.75;5036637;28;20064;-63
2022/04/28 08:19:19;;;;;;;11.00;6.75;;;;;;;11.99;60.96;98424.81;5039792;28;20037;-63
2022/04/28 08:21:55;;;;;;;9.38;5.75;;;;;;;12.07;60.22;98422.63;5037115;28;20041;-63
2022/04/28 08:24:22;;;;;;;8.35;5.35;;;;;;;12.17;60.49;98430.16;5038030;28;20047;-63
2022/04/28 08:26:49;;;;;;;9.02;5.68;;;;;;;12.13;58.25;98422.75;5038594;28;20051;-62
2022/04/28 08:29:17;;;;;;;9.13;5.97;;;;;;;12.10;58.42;98427.56;5028773;28;20808;-62
2022/04/28 08:31:49;;;;;;;10.07;6.57;;;;;;;12.13;58.95;98412.72;5029531;28;20137;-60
2022/04/28 08:34:21;;;;;;;;;;;;;;;12.24;60.07;98416.50;5040619;28;20047;-61
2022/04/28 08:36:50;;;;;;;9.18;6.10;;;;;;;12.36;58.71;98428.16;5042002;28;19925;-63
2022/04/28 08:39:19;;;;;;;7.25;5.10;;;;;;;12.43;57.66;98421.78;5044499;28;20053;-64
2022/04/28 08:41:47;;;;;;;8.25;5.38;;;;;;;12.57;55.90;98423.16;5040339;28;20617;-62
2022/04/28 08:44:16;;;;;;;8.60;5.03;;;;;;;12.69;56.22;98419.59;5041806;28;20111;-63
2022/04/28 08:46:54;;;;;;;9.93;5.45;;;;;;;12.58;54.90;98430.28;5026183;28;20052;-63
2022/04/28 08:49:28;;;;;;;9.00;5.75;;;;;;;12.66;55.03;98418.19;5037632;28;20048;-63
2022/04/28 08:52:17;;;;;;;7.50;4.85;;;;;;;12.77;55.47;98416.50;5041452;28;20052;-65
2022/04/28 08:54:46;;;;;;;7.47;4.90;;;;;;;12.80;54.81;98424.19;5043284;28;20045;-64
2022/04/28 08:57:13;;;;;;;8.38;4.65;;;;;;;12.88;53.29;98423.81;5040384;28;20166;-63
2022/04/28 08:59:41;;;;;;;8.55;4.53;;;;;;;12.96;53.46;98430.75;5037599;28;20076;-65
2022/04/28 09:02:11;;;;;;;6.28;4.18;;;;;;;13.03;52.31;98429.78;5044511;28;20102;-61
2022/04/28 09:05:05;;;;;;;7.45;4.55;;;;;;;13.10;52.66;98434.03;5037120;28;20048;-65
2022/04/28 09:07:53;;;;;;;7.90;4.90;;;;;;;13.20;50.45;98427.94;5042020;28;20191;-64
2022/04/28 09:10:40;;;;;;;7.35;4.10;;;;;;;13.35;50.94;98432.03;5035227;28;20052;-64
2022/04/28 09:16:17;;;;;;;8.32;4.15;;;;;;;13.48;50.05;98436.34;5037167;28;20051;-62
2022/04/28 09:18:46;;;;;;;5.68;3.70;;;;;;;13.58;49.93;98435.72;5040716;28;20049;-63
2022/04/28 09:21:13;;;;;;;7.68;4.30;;;;;;;13.64;48.79;98421.94;5034355;28;20488;-63
2022/04/28 09:23:41;;;;;;;6.65;3.83;;;;;;;13.64;50.08;98434.75;5052190;28;20048;-62
2022/04/28 09:26:09;;;;;;;6.43;4.28;;;;;;;13.61;46.24;98418.91;5041206;28;20126;-63
2022/04/28 09:28:38;;;;;;;5.90;3.65;;;;;;;13.59;46.52;98424.59;5038464;28;20099;-62
2022/04/28 09:31:09;;;;;;;6.45;3.63;;;;;;;13.72;44.13;98428.06;5038994;28;20488;-63
2022/04/28 09:33:50;;;;;;;4.88;3.17;;;;;;;13.78;45.33;98424.34;5068384;28;20127;-63
2022/04/28 09:36:32;;;;;;;6.15;3.47;;;;;;;13.75;45.98;98417.50;5041189;28;20072;-63
2022/04/28 09:44:54;;;;;;;7.63;4.82;;;;;;;14.07;44.47;98418.81;5063124;28;20072;-63
2022/04/28 09:47:22;;;;;;;6.78;4.15;;;;;;;14.10;46.20;98415.59;5037167;28;20076;-62
2022/04/28 09:49:55;;;;;;;6.25;3.97;;;;;;;14.26;46.40;98418.56;5043307;28;20052;-63
2022/04/28 09:52:30;;;;;;;8.40;4.07;;;;;;;14.34;45.15;98426.28;5040603;28;20055;-62
2022/04/28 09:55:17;;;;;;;5.78;3.90;;;;;;;14.44;44.27;98409.25;5041310;28;20618;-63
2022/04/28 09:58:21;;;;;;;5.50;3.72;;;;;;;14.47;45.76;98418.81;5025653;28;20618;-63
2022/04/28 10:00:48;;;;;;;5.75;3.65;;;;;;;14.52;42.32;98410.72;5037430;28;20845;-63
2022/04/28 10:03:15;;;;;;;6.97;3.38;;;;;;;14.57;40.50;98418.97;5039693;28;20544;-63
2022/04/28 10:05:44;;;;;;;5.47;3.30;;;;;;;14.69;43.21;98416.94;5041082;28;20316;-64
2022/04/28 10:08:47;;;;;;;6.63;4.40;;;;;;;14.70;42.79;98418.59;5038587;28;20052;-62
2022/04/28 10:11:20;;;;;;;6.00;3.60;;;;;;;14.72;41.84;98417.50;5038296;28;20131;-63
2022/04/28 10:13:50;;;;;;;5.40;3.10;;;;;;;14.76;40.59;98421.38;5038420;28;20043;-63
2022/04/28 10:16:22;;;;;;;5.43;3.20;;;;;;;14.83;41.73;98416.59;5036658;28;20045;-62
2022/04/28 10:19:12;;;;;;;6.13;3.65;;;;;;;14.81;42.48;98408.66;5042713;28;20287;-64
2022/04/28 10:21:56;;;;;;;5.47;3.55;;;;;;;14.94;42.13;98412.91;5041855;28;20595;-64
2022/04/28 10:33:19;;;;;;;6.97;3.33;;;;;;;15.41;40.65;98397.00;5043606;28;20493;-64
2022/04/28 10:35:53;;;;;;;7.07;3.40;;;;;;;15.23;39.31;98391.94;5047160;28;20041;-64
2022/04/28 10:38:23;;;;;;;5.45;3.08;;;;;;;15.09;40.23;98395.06;5047094;28;20044;-63
2022/04/28 10:41:06;;;;;;;6.07;3.17;;;;;;;15.23;40.56;98395.50;5045360;28;20048;-62
2022/04/28 10:43:32;;;;;;;6.03;3.60;;;;;;;15.28;39.63;98398.25;5046067;28;20673;-64
2022/04/28 10:46:01;;;;;;;4.88;3.20;;;;;;;15.45;39.29;98398.13;5046744;28;20040;-62
2022/04/28 10:48:32;;;;;;;6.45;3.33;;;;;;;15.33;38.48;98403.75;5037054;28;20045;-63
2022/04/28 10:51:12;;;;;;;4.80;2.70;;;;;;;15.44;39.15;98401.94;5047400;28;20124;-62
2022/04/28 10:54:09;;;;;;;5.47;3.05;;;;;;;15.73;37.83;98390.75;5043264;28;20674;-63
2022/04/28 10:56:42;;;;;;;5.43;2.63;;;;;;;15.82;38.73;98388.34;5048218;28;20064;-64
2022/04/28 10:59:35;;;;;;;4.60;2.47;;;;;;;16.07;39.08;98397.84;5045596;28;20045;-64
2022/04/28 11:02:13;;;;;;;4.43;2.60;;;;;;;15.79;35.58;98396.25;5039967;28;20065;-63
2022/04/28 11:04:41;;;;;;;4.10;2.28;;;;;;;15.76;37.07;98399.47;5047335;28;20048;-63
2022/04/28 11:07:15;;;;;;;5.53;2.80;;;;;;;15.82;37.47;98406.66;5045313;28;20049;-61
2022/04/28 11:09:55;;;;;;;5.45;2.78;;;;;;;16.12;37.27;98408.81;5047125;28;20052;-64
2022/04/28 11:12:25;;;;;;;5.13;3.33;;;;;;;16.32;35.75;98410.03;5044581;28;20045;-63
2022/04/28 11:15:00;;;;;;;5.25;2.67;;;;;;;16.29;34.28;98407.00;5046365;28;20047;-64
2022/04/28 11:17:28;;;;;;;4.35;2.67;;;;;;;16.42;34.56;98402.97;5046027;28;20745;-65
2022/04/28 11:19:55;;;;;;;5.25;3.10;;;;;;;15.91;34.24;98401.50;5043692;28;20524;-61
2022/04/28 11:22:22;;;;;;;6.78;2.03;;;;;;;16.10;35.49;98408.25;5042565;28;20045;-65
2022/04/28 11:24:49;;;;;;;6.00;3.10;;;;;;;16.04;34.79;98406.56;5044595;28;20137;-64
2022/04/28 11:27:34;;;;;;;4.78;2.40;;;;;;;16.25;36.23;98406.69;5041629;28;20059;-65
2022/04/28 11:30:10;;;;;;;5.40;2.60;;;;;;;16.22;34.92;98397.13;5040904;28;20071;-65
2022/04/28 11:32:49;;;;;;;4.03;2.35;;;;;;;16.22;34.78;98402.56;5043118;28;20534;-65
2022/04/28 11:35:16;;;;;;;4.18;2.42;;;;;;;16.20;35.42;98406.66;5043117;28;20040;-65
2022/04/28 11:37:43;;;;;;;4.65;2.50;;;;;;;16.37;35.32;98399.13;5043639;28;20652;-66
2022/04/28 11:40:14;;;;;;;5.70;2.63;;;;;;;16.37;34.72;98396.38;5048034;28;20052;-66
2022/04/28 11:42:58;;;;;;;4.65;2.67;;;;;;;16.50;35.00;98397.00;5042444;28;20045;-63
2022/04/28 11:45:26;;;;;;;5.32;2.78;;;;;;;16.59;34.89;98394.59;5044972;28;20508;-65
2022/04/28 11:47:56;;;;;;;4.30;2.80;;;;;;;16.49;34.09;98401.66;5042804;28;20049;-65
2022/04/28 11:50:26;;;;;;;4.15;2.45;;;;;;;16.19;34.71;98405.84;5045314;28;20060;-66
2022/04/28 11:53:07;;;;;;;6.03;2.83;;;;;;;16.36;33.83;98391.16;5045077;28;20041;-65
2022/04/28 11:55:38;;;;;;;4.60;2.63;;;;;;;16.55;34.36;98388.81;5045679;28;20045;-66
2022/04/28 11:58:08;;;;;;;5.30;2.43;;;;;;;16.69;33.84;98396.56;5045348;28;20067;-65
2022/04/28 12:00:37;;;;;;;7.07;3.30;;;;;;;16.74;33.29;98385.63;5044567;28;20048;-66
2022/04/28 12:03:04;;;;;;;3.78;2.40;;;;;;;16.86;33.34;98391.69;5045829;28;20052;-65
2022/04/28 12:05:33;;;;;;;4.93;2.40;;;;;;;16.85;33.45;98392.75;5058433;28;20075;-66
2022/04/28 12:08:00;;;;;;;4.47;2.28;;;;;;;16.91;33.99;98396.34;5046021;28;20565;-66
2022/04/28 12:16:18;;;;;;;5.75;2.60;;;;;;;17.23;33.28;98392.63;5038841;28;20508;-67
2022/04/28 12:21:34;;;;;;;4.70;2.30;;;;;;;17.39;33.32;98389.91;5041523;28;20578;-65
2022/04/28 12:24:13;;;;;;;4.50;2.67;;;;;;;17.62;32.87;98383.06;5059971;28;20040;-66
2022/04/28 12:26:45;;;;;;;4.03;2.60;;;;;;;17.77;32.62;98370.50;5045199;28;20500;-61
2022/04/28 12:29:13;;;;;;;4.15;2.60;;;;;;;18.02;32.74;98364.16;5043911;28;20532;-66
2022/04/28 12:31:41;;;;;;;4.38;2.30;;;;;;;17.80;32.21;98373.50;5044510;28;20059;-65
2022/04/28 12:34:20;;;;;;;4.72;2.28;;;;;;;18.18;31.55;98377.88;5048222;28;20115;-67
2022/04/28 12:36:48;;;;;;;4.70;2.03;;;;;;;18.32;31.11;98381.66;5064046;28;20040;-67
2022/04/28 12:39:19;;;;;;;4.22;2.28;;;;;;;18.02;30.80;98372.38;5048622;28;20075;-67
2022/04/28 12:41:48;;;;;;;3.65;1.80;;;;;;;18.13;32.07;98378.69;5044363;28;20047;-66